sensor_id;sensor_type;location;lat;lon;timestamp;P1;durP1;ratioP1;P2;durP2;ratioP2
1320;SDS011;653;51.480;11.992;2023-01-09T00:01:41;16.87;;;12.47;;
1320;SDS011;653;51.480;11.992;2023-01-09T00:04:09;15.97;;;11.60;;
1320;SDS011;653;51.480;11.992;2023-01-09T00:06:35;16.57;;;12.87;;
1320;SDS011;653;51.480;11.992;2023-01-09T00:09:00;14.90;;;12.50;;
1320;SDS011;653;51.480;11.992;2023-01-09T00:11:26;15.00;;;12.30;;
1320;SDS011;653;51.480;11.992;2023-01-09T00:13:51;17.33;;;12.37;;
1320;SDS011;653;51.480;11.992;2023-01-09T00:16:17;17.30;;;13.13;;
1320;SDS011;653;51.480;11.992;2023-01-09T00:18:42;15.37;;;13.10;;
1320;SDS011;653;51.480;11.992;2023-01-09T00:21:08;15.80;;;12.30;;
1320;SDS011;653;51.480;11.992;2023-01-09T00:23:35;18.43;;;13.03;;
1320;SDS011;653;51.480;11.992;2023-01-09T00:26:10;15.10;;;12.20;;
1320;SDS011;653;51.480;11.992;2023-01-09T00:28:37;17.30;;;12.73;;
1320;SDS011;653;51.480;11.992;2023-01-09T00:31:03;15.23;;;12.87;;
1320;SDS011;653;51.480;11.992;2023-01-09T00:33:31;15.40;;;12.13;;
1320;SDS011;653;51.480;11.992;2023-01-09T00:36:01;15.10;;;11.70;;
1320;SDS011;653;51.480;11.992;2023-01-09T00:38:27;16.97;;;13.47;;
1320;SDS011;653;51.480;11.992;2023-01-09T00:40:53;16.40;;;13.37;;
1320;SDS011;653;51.480;11.992;2023-01-09T00:43:18;16.43;;;12.60;;
1320;SDS011;653;51.480;11.992;2023-01-09T00:45:44;18.10;;;12.00;;
1320;SDS011;653;51.480;11.992;2023-01-09T00:48:11;14.97;;;11.90;;
1320;SDS011;653;51.480;11.992;2023-01-09T00:50:38;16.23;;;12.30;;
1320;SDS011;653;51.480;11.992;2023-01-09T00:53:05;15.37;;;12.53;;
1320;SDS011;653;51.480;11.992;2023-01-09T00:55:37;15.27;;;12.40;;
1320;SDS011;653;51.480;11.992;2023-01-09T00:58:03;16.90;;;12.80;;
1320;SDS011;653;51.480;11.992;2023-01-09T01:00:29;15.83;;;12.83;;
1320;SDS011;653;51.480;11.992;2023-01-09T01:02:55;14.80;;;13.30;;
1320;SDS011;653;51.480;11.992;2023-01-09T01:05:21;13.63;;;12.20;;
1320;SDS011;653;51.480;11.992;2023-01-09T01:08:09;16.67;;;11.90;;
1320;SDS011;653;51.480;11.992;2023-01-09T01:10:35;13.97;;;11.40;;
1320;SDS011;653;51.480;11.992;2023-01-09T01:13:01;15.57;;;11.20;;
1320;SDS011;653;51.480;11.992;2023-01-09T01:15:26;16.13;;;12.10;;
1320;SDS011;653;51.480;11.992;2023-01-09T01:17:53;16.00;;;12.60;;
1320;SDS011;653;51.480;11.992;2023-01-09T01:20:19;21.27;;;12.60;;
1320;SDS011;653;51.480;11.992;2023-01-09T01:22:45;17.53;;;13.10;;
1320;SDS011;653;51.480;11.992;2023-01-09T01:25:11;17.47;;;12.50;;
1320;SDS011;653;51.480;11.992;2023-01-09T01:27:37;14.63;;;11.93;;
1320;SDS011;653;51.480;11.992;2023-01-09T01:30:04;14.50;;;11.70;;
1320;SDS011;653;51.480;11.992;2023-01-09T01:32:30;16.83;;;11.93;;
1320;SDS011;653;51.480;11.992;2023-01-09T01:34:56;17.90;;;12.47;;
1320;SDS011;653;51.480;11.992;2023-01-09T01:37:21;15.03;;;10.83;;
1320;SDS011;653;51.480;11.992;2023-01-09T01:39:47;15.30;;;11.63;;
1320;SDS011;653;51.480;11.992;2023-01-09T01:42:13;13.83;;;10.00;;
1320;SDS011;653;51.480;11.992;2023-01-09T01:47:34;13.07;;;10.10;;
1320;SDS011;653;51.480;11.992;2023-01-09T01:50:02;13.50;;;10.10;;
1320;SDS011;653;51.480;11.992;2023-01-09T01:52:29;11.63;;;9.63;;
1320;SDS011;653;51.480;11.992;2023-01-09T01:54:57;12.70;;;10.10;;
1320;SDS011;653;51.480;11.992;2023-01-09T01:57:22;12.50;;;10.60;;
1320;SDS011;653;51.480;11.992;2023-01-09T01:59:49;12.07;;;9.50;;
1320;SDS011;653;51.480;11.992;2023-01-09T02:02:19;11.93;;;9.93;;
1320;SDS011;653;51.480;11.992;2023-01-09T02:04:47;11.77;;;9.10;;
1320;SDS011;653;51.480;11.992;2023-01-09T02:07:12;11.80;;;9.40;;
1320;SDS011;653;51.480;11.992;2023-01-09T02:09:39;10.77;;;9.27;;
1320;SDS011;653;51.480;11.992;2023-01-09T02:12:13;12.17;;;9.30;;
1320;SDS011;653;51.480;11.992;2023-01-09T02:14:39;10.90;;;8.60;;
1320;SDS011;653;51.480;11.992;2023-01-09T02:25:59;12.10;;;10.00;;
1320;SDS011;653;51.480;11.992;2023-01-09T02:28:42;11.43;;;8.87;;
1320;SDS011;653;51.480;11.992;2023-01-09T02:31:24;11.97;;;8.10;;
1320;SDS011;653;51.480;11.992;2023-01-09T02:36:53;12.33;;;8.70;;
1320;SDS011;653;51.480;11.992;2023-01-09T02:42:15;11.50;;;9.07;;
1320;SDS011;653;51.480;11.992;2023-01-09T02:44:43;11.37;;;8.63;;
1320;SDS011;653;51.480;11.992;2023-01-09T02:49:42;10.70;;;8.63;;
1320;SDS011;653;51.480;11.992;2023-01-09T03:08:55;9.63;;;8.60;;
1320;SDS011;653;51.480;11.992;2023-01-09T03:11:23;11.47;;;8.40;;
1320;SDS011;653;51.480;11.992;2023-01-09T03:13:54;13.20;;;9.30;;
1320;SDS011;653;51.480;11.992;2023-01-09T03:16:25;11.17;;;8.40;;
1320;SDS011;653;51.480;11.992;2023-01-09T03:18:54;11.90;;;7.80;;
1320;SDS011;653;51.480;11.992;2023-01-09T03:21:22;12.30;;;8.50;;
1320;SDS011;653;51.480;11.992;2023-01-09T03:23:53;9.00;;;7.63;;
1320;SDS011;653;51.480;11.992;2023-01-09T03:26:20;11.47;;;8.93;;
1320;SDS011;653;51.480;11.992;2023-01-09T03:28:46;11.70;;;8.57;;
1320;SDS011;653;51.480;11.992;2023-01-09T03:31:12;10.13;;;8.07;;
1320;SDS011;653;51.480;11.992;2023-01-09T03:33:37;10.03;;;8.17;;
1320;SDS011;653;51.480;11.992;2023-01-09T03:36:05;10.70;;;8.57;;
1320;SDS011;653;51.480;11.992;2023-01-09T03:38:31;11.40;;;8.40;;
1320;SDS011;653;51.480;11.992;2023-01-09T03:40:56;11.53;;;8.10;;
1320;SDS011;653;51.480;11.992;2023-01-09T03:43:22;10.17;;;7.87;;
1320;SDS011;653;51.480;11.992;2023-01-09T03:45:47;13.37;;;8.40;;
1320;SDS011;653;51.480;11.992;2023-01-09T03:48:12;12.60;;;9.07;;
1320;SDS011;653;51.480;11.992;2023-01-09T03:50:38;13.80;;;9.60;;
1320;SDS011;653;51.480;11.992;2023-01-09T03:53:06;10.90;;;8.43;;
1320;SDS011;653;51.480;11.992;2023-01-09T03:55:32;13.90;;;10.50;;
1320;SDS011;653;51.480;11.992;2023-01-09T03:57:57;11.33;;;8.30;;
1320;SDS011;653;51.480;11.992;2023-01-09T04:00:23;12.27;;;9.30;;
1320;SDS011;653;51.480;11.992;2023-01-09T04:02:48;13.13;;;9.80;;
1320;SDS011;653;51.480;11.992;2023-01-09T04:05:13;12.13;;;9.43;;
1320;SDS011;653;51.480;11.992;2023-01-09T04:07:39;13.83;;;10.77;;
1320;SDS011;653;51.480;11.992;2023-01-09T04:10:05;14.80;;;11.60;;
1320;SDS011;653;51.480;11.992;2023-01-09T04:12:31;15.77;;;11.43;;
1320;SDS011;653;51.480;11.992;2023-01-09T04:14:56;16.67;;;12.07;;
1320;SDS011;653;51.480;11.992;2023-01-09T04:17:22;16.80;;;11.60;;
1320;SDS011;653;51.480;11.992;2023-01-09T04:19:47;15.40;;;11.80;;
1320;SDS011;653;51.480;11.992;2023-01-09T04:22:13;17.33;;;11.50;;
1320;SDS011;653;51.480;11.992;2023-01-09T04:24:38;15.70;;;11.57;;
1320;SDS011;653;51.480;11.992;2023-01-09T04:27:04;19.10;;;11.60;;
1320;SDS011;653;51.480;11.992;2023-01-09T04:29:29;14.17;;;11.53;;
1320;SDS011;653;51.480;11.992;2023-01-09T04:31:55;15.57;;;12.00;;
1320;SDS011;653;51.480;11.992;2023-01-09T04:34:20;16.80;;;11.73;;
1320;SDS011;653;51.480;11.992;2023-01-09T04:36:49;17.80;;;12.53;;
1320;SDS011;653;51.480;11.992;2023-01-09T04:39:16;16.93;;;12.20;;
1320;SDS011;653;51.480;11.992;2023-01-09T04:41:41;14.20;;;10.50;;
1320;SDS011;653;51.480;11.992;2023-01-09T04:44:20;13.60;;;10.07;;
1320;SDS011;653;51.480;11.992;2023-01-09T04:46:47;12.10;;;9.50;;
1320;SDS011;653;51.480;11.992;2023-01-09T04:49:13;12.60;;;9.87;;
1320;SDS011;653;51.480;11.992;2023-01-09T04:51:39;15.10;;;9.80;;
1320;SDS011;653;51.480;11.992;2023-01-09T04:54:04;14.60;;;9.87;;
1320;SDS011;653;51.480;11.992;2023-01-09T04:56:30;15.10;;;9.63;;
1320;SDS011;653;51.480;11.992;2023-01-09T04:58:56;13.07;;;9.50;;
1320;SDS011;653;51.480;11.992;2023-01-09T05:01:21;11.80;;;8.87;;
1320;SDS011;653;51.480;11.992;2023-01-09T05:03:47;13.47;;;10.50;;
1320;SDS011;653;51.480;11.992;2023-01-09T05:06:13;17.30;;;11.30;;
1320;SDS011;653;51.480;11.992;2023-01-09T05:08:38;14.63;;;10.23;;
1320;SDS011;653;51.480;11.992;2023-01-09T05:11:03;15.90;;;11.30;;
1320;SDS011;653;51.480;11.992;2023-01-09T05:13:29;14.20;;;11.50;;
1320;SDS011;653;51.480;11.992;2023-01-09T05:15:54;12.33;;;9.60;;
1320;SDS011;653;51.480;11.992;2023-01-09T05:18:20;17.10;;;12.70;;
1320;SDS011;653;51.480;11.992;2023-01-09T05:20:46;17.40;;;12.13;;
1320;SDS011;653;51.480;11.992;2023-01-09T05:23:11;21.20;;;12.53;;
1320;SDS011;653;51.480;11.992;2023-01-09T05:25:36;19.33;;;12.57;;
1320;SDS011;653;51.480;11.992;2023-01-09T05:28:02;13.50;;;10.50;;
1320;SDS011;653;51.480;11.992;2023-01-09T05:30:27;13.90;;;10.30;;
1320;SDS011;653;51.480;11.992;2023-01-09T05:32:53;12.80;;;9.80;;
1320;SDS011;653;51.480;11.992;2023-01-09T05:35:18;12.83;;;8.77;;
1320;SDS011;653;51.480;11.992;2023-01-09T05:37:44;16.43;;;11.27;;
1320;SDS011;653;51.480;11.992;2023-01-09T05:40:10;15.93;;;10.70;;
1320;SDS011;653;51.480;11.992;2023-01-09T05:42:36;14.30;;;9.60;;
1320;SDS011;653;51.480;11.992;2023-01-09T05:45:02;12.73;;;9.60;;
1320;SDS011;653;51.480;11.992;2023-01-09T05:47:27;12.87;;;8.40;;
1320;SDS011;653;51.480;11.992;2023-01-09T05:49:53;11.70;;;9.27;;
1320;SDS011;653;51.480;11.992;2023-01-09T05:52:20;11.63;;;8.40;;
1320;SDS011;653;51.480;11.992;2023-01-09T05:54:48;10.70;;;7.83;;
1320;SDS011;653;51.480;11.992;2023-01-09T05:57:13;12.20;;;7.47;;
1320;SDS011;653;51.480;11.992;2023-01-09T05:59:39;13.20;;;9.17;;
1320;SDS011;653;51.480;11.992;2023-01-09T06:02:04;9.40;;;7.60;;
1320;SDS011;653;51.480;11.992;2023-01-09T06:04:30;12.30;;;7.83;;
1320;SDS011;653;51.480;11.992;2023-01-09T06:06:56;10.47;;;7.40;;
1320;SDS011;653;51.480;11.992;2023-01-09T06:09:21;15.03;;;7.40;;
1320;SDS011;653;51.480;11.992;2023-01-09T06:11:47;10.87;;;8.47;;
1320;SDS011;653;51.480;11.992;2023-01-09T06:14:13;8.97;;;7.50;;
1320;SDS011;653;51.480;11.992;2023-01-09T06:16:39;9.80;;;7.60;;
1320;SDS011;653;51.480;11.992;2023-01-09T06:19:04;9.47;;;7.70;;
1320;SDS011;653;51.480;11.992;2023-01-09T06:21:30;10.70;;;8.07;;
1320;SDS011;653;51.480;11.992;2023-01-09T06:23:57;12.50;;;8.43;;
1320;SDS011;653;51.480;11.992;2023-01-09T06:26:23;11.80;;;8.60;;
1320;SDS011;653;51.480;11.992;2023-01-09T06:28:49;10.60;;;7.40;;
1320;SDS011;653;51.480;11.992;2023-01-09T06:31:15;13.60;;;7.87;;
1320;SDS011;653;51.480;11.992;2023-01-09T06:33:40;11.47;;;8.90;;
1320;SDS011;653;51.480;11.992;2023-01-09T06:36:06;11.80;;;7.97;;
1320;SDS011;653;51.480;11.992;2023-01-09T06:38:31;11.77;;;7.50;;
1320;SDS011;653;51.480;11.992;2023-01-09T06:40:57;11.27;;;8.23;;
1320;SDS011;653;51.480;11.992;2023-01-09T06:43:23;9.83;;;7.43;;
1320;SDS011;653;51.480;11.992;2023-01-09T06:45:48;9.93;;;6.70;;
1320;SDS011;653;51.480;11.992;2023-01-09T06:48:14;8.17;;;6.80;;
1320;SDS011;653;51.480;11.992;2023-01-09T06:50:39;11.30;;;6.87;;
1320;SDS011;653;51.480;11.992;2023-01-09T06:53:05;11.87;;;6.80;;
1320;SDS011;653;51.480;11.992;2023-01-09T06:55:34;7.77;;;6.03;;
1320;SDS011;653;51.480;11.992;2023-01-09T06:58:00;9.47;;;6.10;;
1320;SDS011;653;51.480;11.992;2023-01-09T07:00:25;7.00;;;6.30;;
1320;SDS011;653;51.480;11.992;2023-01-09T07:02:51;6.90;;;5.47;;
1320;SDS011;653;51.480;11.992;2023-01-09T07:05:16;5.47;;;4.90;;
1320;SDS011;653;51.480;11.992;2023-01-09T07:07:42;7.10;;;5.53;;
1320;SDS011;653;51.480;11.992;2023-01-09T07:10:07;9.57;;;5.00;;
1320;SDS011;653;51.480;11.992;2023-01-09T07:12:34;5.83;;;4.57;;
1320;SDS011;653;51.480;11.992;2023-01-09T07:14:59;5.97;;;5.03;;
1320;SDS011;653;51.480;11.992;2023-01-09T07:17:25;6.77;;;5.47;;
1320;SDS011;653;51.480;11.992;2023-01-09T07:19:50;6.00;;;4.50;;
1320;SDS011;653;51.480;11.992;2023-01-09T07:22:16;5.07;;;4.33;;
1320;SDS011;653;51.480;11.992;2023-01-09T07:24:42;5.73;;;4.20;;
1320;SDS011;653;51.480;11.992;2023-01-09T07:27:11;5.80;;;4.50;;
1320;SDS011;653;51.480;11.992;2023-01-09T07:29:37;5.87;;;4.07;;
1320;SDS011;653;51.480;11.992;2023-01-09T07:32:02;5.00;;;3.93;;
1320;SDS011;653;51.480;11.992;2023-01-09T07:34:28;9.23;;;4.33;;
1320;SDS011;653;51.480;11.992;2023-01-09T07:36:53;5.67;;;3.70;;
1320;SDS011;653;51.480;11.992;2023-01-09T07:39:19;4.40;;;3.57;;
1320;SDS011;653;51.480;11.992;2023-01-09T07:41:44;4.40;;;3.30;;
1320;SDS011;653;51.480;11.992;2023-01-09T07:44:10;4.40;;;3.20;;
1320;SDS011;653;51.480;11.992;2023-01-09T07:46:35;4.47;;;2.93;;
1320;SDS011;653;51.480;11.992;2023-01-09T07:49:01;3.00;;;2.50;;
1320;SDS011;653;51.480;11.992;2023-01-09T07:51:26;6.70;;;3.10;;
1320;SDS011;653;51.480;11.992;2023-01-09T07:53:52;4.87;;;2.47;;
1320;SDS011;653;51.480;11.992;2023-01-09T07:56:18;3.87;;;1.90;;
1320;SDS011;653;51.480;11.992;2023-01-09T07:58:43;4.40;;;2.73;;
1320;SDS011;653;51.480;11.992;2023-01-09T08:01:08;4.70;;;2.30;;
1320;SDS011;653;51.480;11.992;2023-01-09T08:03:34;2.27;;;1.80;;
1320;SDS011;653;51.480;11.992;2023-01-09T08:05:59;2.53;;;1.83;;
1320;SDS011;653;51.480;11.992;2023-01-09T08:08:25;2.87;;;2.13;;
1320;SDS011;653;51.480;11.992;2023-01-09T08:10:51;2.50;;;1.97;;
1320;SDS011;653;51.480;11.992;2023-01-09T08:13:16;2.47;;;1.93;;
1320;SDS011;653;51.480;11.992;2023-01-09T08:15:42;3.90;;;1.83;;
1320;SDS011;653;51.480;11.992;2023-01-09T08:18:07;2.30;;;1.93;;
1320;SDS011;653;51.480;11.992;2023-01-09T08:20:33;2.27;;;1.37;;
1320;SDS011;653;51.480;11.992;2023-01-09T08:22:58;3.30;;;2.33;;
1320;SDS011;653;51.480;11.992;2023-01-09T08:25:24;2.70;;;2.30;;
1320;SDS011;653;51.480;11.992;2023-01-09T08:27:50;3.33;;;2.00;;
1320;SDS011;653;51.480;11.992;2023-01-09T08:30:16;2.50;;;1.90;;
1320;SDS011;653;51.480;11.992;2023-01-09T08:32:42;2.23;;;1.93;;
1320;SDS011;653;51.480;11.992;2023-01-09T08:35:07;2.33;;;1.50;;
1320;SDS011;653;51.480;11.992;2023-01-09T08:37:33;3.40;;;2.10;;
1320;SDS011;653;51.480;11.992;2023-01-09T08:39:58;3.93;;;2.20;;
1320;SDS011;653;51.480;11.992;2023-01-09T08:42:24;2.70;;;2.20;;
1320;SDS011;653;51.480;11.992;2023-01-09T08:45:09;2.60;;;1.37;;
1320;SDS011;653;51.480;11.992;2023-01-09T08:47:54;2.37;;;1.60;;
1320;SDS011;653;51.480;11.992;2023-01-09T08:50:19;2.53;;;1.97;;
1320;SDS011;653;51.480;11.992;2023-01-09T08:52:45;3.77;;;2.03;;
1320;SDS011;653;51.480;11.992;2023-01-09T08:55:11;3.10;;;2.50;;
1320;SDS011;653;51.480;11.992;2023-01-09T08:57:36;2.70;;;2.00;;
1320;SDS011;653;51.480;11.992;2023-01-09T09:00:02;3.50;;;2.40;;
1320;SDS011;653;51.480;11.992;2023-01-09T09:02:28;2.40;;;2.00;;
1320;SDS011;653;51.480;11.992;2023-01-09T09:04:53;2.83;;;1.97;;
1320;SDS011;653;51.480;11.992;2023-01-09T09:07:20;2.60;;;2.10;;
1320;SDS011;653;51.480;11.992;2023-01-09T09:09:51;3.50;;;2.13;;
1320;SDS011;653;51.480;11.992;2023-01-09T09:12:17;2.83;;;2.37;;
1320;SDS011;653;51.480;11.992;2023-01-09T09:14:43;3.33;;;2.23;;
1320;SDS011;653;51.480;11.992;2023-01-09T09:17:27;3.10;;;1.70;;
1320;SDS011;653;51.480;11.992;2023-01-09T09:19:53;2.80;;;1.90;;
1320;SDS011;653;51.480;11.992;2023-01-09T09:22:18;2.67;;;1.50;;
1320;SDS011;653;51.480;11.992;2023-01-09T09:24:44;2.50;;;1.60;;
1320;SDS011;653;51.480;11.992;2023-01-09T09:27:09;4.03;;;1.70;;
1320;SDS011;653;51.480;11.992;2023-01-09T09:29:35;2.40;;;1.70;;
1320;SDS011;653;51.480;11.992;2023-01-09T09:32:00;2.43;;;1.47;;
1320;SDS011;653;51.480;11.992;2023-01-09T09:34:26;2.00;;;1.60;;
1320;SDS011;653;51.480;11.992;2023-01-09T09:36:51;2.50;;;1.10;;
1320;SDS011;653;51.480;11.992;2023-01-09T09:39:17;2.47;;;1.50;;
1320;SDS011;653;51.480;11.992;2023-01-09T09:50:51;1.10;;;0.60;;
1320;SDS011;653;51.480;11.992;2023-01-09T09:56:06;2.10;;;0.70;;
1320;SDS011;653;51.480;11.992;2023-01-09T10:01:09;1.40;;;0.60;;
1320;SDS011;653;51.480;11.992;2023-01-09T10:03:44;2.07;;;0.60;;
1320;SDS011;653;51.480;11.992;2023-01-09T10:06:28;1.30;;;0.83;;
1320;SDS011;653;51.480;11.992;2023-01-09T10:11:42;1.10;;;0.50;;
1320;SDS011;653;51.480;11.992;2023-01-09T10:14:12;1.97;;;0.80;;
1320;SDS011;653;51.480;11.992;2023-01-09T10:16:41;1.40;;;0.67;;
1320;SDS011;653;51.480;11.992;2023-01-09T10:19:15;1.90;;;0.77;;
1320;SDS011;653;51.480;11.992;2023-01-09T10:27:07;2.10;;;0.73;;
1320;SDS011;653;51.480;11.992;2023-01-09T10:29:43;6.30;;;1.37;;
1320;SDS011;653;51.480;11.992;2023-01-09T10:32:44;2.20;;;0.80;;
1320;SDS011;653;51.480;11.992;2023-01-09T10:35:20;2.20;;;0.70;;
1320;SDS011;653;51.480;11.992;2023-01-09T10:37:51;2.03;;;0.60;;
1320;SDS011;653;51.480;11.992;2023-01-09T10:40:24;1.83;;;0.50;;
1320;SDS011;653;51.480;11.992;2023-01-09T10:42:56;3.53;;;1.03;;
1320;SDS011;653;51.480;11.992;2023-01-09T10:45:30;1.80;;;0.77;;
1320;SDS011;653;51.480;11.992;2023-01-09T10:48:01;1.63;;;0.50;;
1320;SDS011;653;51.480;11.992;2023-01-09T10:50:33;2.00;;;0.80;;
1320;SDS011;653;51.480;11.992;2023-01-09T10:53:00;1.30;;;0.70;;
1320;SDS011;653;51.480;11.992;2023-01-09T10:55:41;4.37;;;1.30;;
1320;SDS011;653;51.480;11.992;2023-01-09T10:58:10;2.90;;;0.93;;
1320;SDS011;653;51.480;11.992;2023-01-09T11:00:37;1.50;;;0.90;;
1320;SDS011;653;51.480;11.992;2023-01-09T11:03:03;2.97;;;0.70;;
1320;SDS011;653;51.480;11.992;2023-01-09T11:05:29;1.50;;;0.90;;
1320;SDS011;653;51.480;11.992;2023-01-09T11:08:00;2.23;;;0.90;;
1320;SDS011;653;51.480;11.992;2023-01-09T11:10:50;1.43;;;0.80;;
1320;SDS011;653;51.480;11.992;2023-01-09T11:13:17;1.67;;;1.10;;
1320;SDS011;653;51.480;11.992;2023-01-09T11:16:33;2.03;;;0.80;;
1320;SDS011;653;51.480;11.992;2023-01-09T11:18:54;1.93;;;0.90;;
1320;SDS011;653;51.480;11.992;2023-01-09T11:24:24;2.53;;;0.67;;
1320;SDS011;653;51.480;11.992;2023-01-09T11:27:38;3.70;;;0.70;;
1320;SDS011;653;51.480;11.992;2023-01-09T11:29:39;2.67;;;0.70;;
1320;SDS011;653;51.480;11.992;2023-01-09T11:32:15;2.90;;;1.23;;
1320;SDS011;653;51.480;11.992;2023-01-09T11:34:45;2.30;;;0.87;;
1320;SDS011;653;51.480;11.992;2023-01-09T11:37:11;1.40;;;0.70;;
1320;SDS011;653;51.480;11.992;2023-01-09T11:39:38;1.87;;;0.73;;
1320;SDS011;653;51.480;11.992;2023-01-09T11:42:18;2.03;;;1.03;;
1320;SDS011;653;51.480;11.992;2023-01-09T11:45:04;1.67;;;0.70;;
1320;SDS011;653;51.480;11.992;2023-01-09T11:47:38;2.67;;;0.87;;
1320;SDS011;653;51.480;11.992;2023-01-09T11:50:18;2.07;;;0.70;;
1320;SDS011;653;51.480;11.992;2023-01-09T11:52:45;1.30;;;0.63;;
1320;SDS011;653;51.480;11.992;2023-01-09T11:55:14;2.20;;;0.77;;
1320;SDS011;653;51.480;11.992;2023-01-09T11:57:42;1.83;;;0.83;;
1320;SDS011;653;51.480;11.992;2023-01-09T12:08:39;1.20;;;0.67;;
1320;SDS011;653;51.480;11.992;2023-01-09T12:11:22;1.40;;;0.70;;
1320;SDS011;653;51.480;11.992;2023-01-09T12:14:00;1.00;;;0.40;;
1320;SDS011;653;51.480;11.992;2023-01-09T12:22:01;1.47;;;1.37;;
1320;SDS011;653;51.480;11.992;2023-01-09T12:24:45;1.10;;;0.70;;
1320;SDS011;653;51.480;11.992;2023-01-09T12:27:24;1.47;;;0.80;;
1320;SDS011;653;51.480;11.992;2023-01-09T12:30:02;1.47;;;0.70;;
1320;SDS011;653;51.480;11.992;2023-01-09T12:35:39;1.40;;;1.10;;
1320;SDS011;653;51.480;11.992;2023-01-09T12:38:15;1.53;;;0.87;;
1320;SDS011;653;51.480;11.992;2023-01-09T12:40:50;3.07;;;1.20;;
1320;SDS011;653;51.480;11.992;2023-01-09T12:43:28;1.23;;;0.97;;
1320;SDS011;653;51.480;11.992;2023-01-09T12:46:30;4.83;;;1.00;;
1320;SDS011;653;51.480;11.992;2023-01-09T12:57:33;1.43;;;0.70;;
1320;SDS011;653;51.480;11.992;2023-01-09T13:02:33;1.60;;;0.70;;
1320;SDS011;653;51.480;11.992;2023-01-09T13:05:08;2.33;;;0.87;;
1320;SDS011;653;51.480;11.992;2023-01-09T13:13:10;2.17;;;0.70;;
1320;SDS011;653;51.480;11.992;2023-01-09T13:15:43;2.13;;;0.83;;
1320;SDS011;653;51.480;11.992;2023-01-09T13:20:45;1.90;;;0.70;;
1320;SDS011;653;51.480;11.992;2023-01-09T13:23:14;3.10;;;0.90;;
1320;SDS011;653;51.480;11.992;2023-01-09T13:26:03;1.20;;;0.77;;
1320;SDS011;653;51.480;11.992;2023-01-09T13:28:33;1.97;;;0.70;;
1320;SDS011;653;51.480;11.992;2023-01-09T13:33:50;3.30;;;1.23;;
1320;SDS011;653;51.480;11.992;2023-01-09T13:36:26;2.20;;;0.77;;
1320;SDS011;653;51.480;11.992;2023-01-09T13:38:54;1.70;;;0.77;;
1320;SDS011;653;51.480;11.992;2023-01-09T13:41:20;2.07;;;0.70;;
1320;SDS011;653;51.480;11.992;2023-01-09T13:44:14;2.70;;;1.10;;
1320;SDS011;653;51.480;11.992;2023-01-09T13:46:50;2.80;;;1.37;;
1320;SDS011;653;51.480;11.992;2023-01-09T13:50:19;3.37;;;1.07;;
1320;SDS011;653;51.480;11.992;2023-01-09T13:57:34;1.30;;;0.70;;
1320;SDS011;653;51.480;11.992;2023-01-09T14:07:34;3.63;;;1.10;;
1320;SDS011;653;51.480;11.992;2023-01-09T14:10:02;1.37;;;0.70;;
1320;SDS011;653;51.480;11.992;2023-01-09T14:12:39;3.17;;;0.90;;
1320;SDS011;653;51.480;11.992;2023-01-09T14:15:06;1.57;;;0.90;;
1320;SDS011;653;51.480;11.992;2023-01-09T14:17:46;2.67;;;0.73;;
1320;SDS011;653;51.480;11.992;2023-01-09T14:20:27;1.13;;;0.63;;
1320;SDS011;653;51.480;11.992;2023-01-09T14:22:56;1.67;;;0.93;;
1320;SDS011;653;51.480;11.992;2023-01-09T14:25:23;1.73;;;0.93;;
1320;SDS011;653;51.480;11.992;2023-01-09T14:28:01;1.57;;;0.80;;
1320;SDS011;653;51.480;11.992;2023-01-09T14:30:37;1.87;;;0.80;;
1320;SDS011;653;51.480;11.992;2023-01-09T14:38:35;1.47;;;0.70;;
1320;SDS011;653;51.480;11.992;2023-01-09T14:46:57;1.20;;;0.70;;
1320;SDS011;653;51.480;11.992;2023-01-09T14:51:56;2.80;;;0.70;;
1320;SDS011;653;51.480;11.992;2023-01-09T14:54:39;2.13;;;0.83;;
1320;SDS011;653;51.480;11.992;2023-01-09T14:57:21;1.77;;;0.60;;
1320;SDS011;653;51.480;11.992;2023-01-09T15:00:02;1.40;;;0.73;;
1320;SDS011;653;51.480;11.992;2023-01-09T15:02:49;2.97;;;0.90;;
1320;SDS011;653;51.480;11.992;2023-01-09T15:05:17;1.77;;;0.83;;
1320;SDS011;653;51.480;11.992;2023-01-09T15:07:49;3.10;;;1.03;;
1320;SDS011;653;51.480;11.992;2023-01-09T15:10:19;1.70;;;0.77;;
1320;SDS011;653;51.480;11.992;2023-01-09T15:12:46;3.63;;;0.93;;
1320;SDS011;653;51.480;11.992;2023-01-09T15:15:13;1.67;;;0.67;;
1320;SDS011;653;51.480;11.992;2023-01-09T15:17:40;1.50;;;0.67;;
1320;SDS011;653;51.480;11.992;2023-01-09T15:20:08;1.93;;;0.90;;
1320;SDS011;653;51.480;11.992;2023-01-09T15:22:46;1.30;;;0.80;;
1320;SDS011;653;51.480;11.992;2023-01-09T15:25:59;1.50;;;1.07;;
1320;SDS011;653;51.480;11.992;2023-01-09T15:28:00;1.73;;;1.20;;
1320;SDS011;653;51.480;11.992;2023-01-09T15:30:28;1.43;;;0.83;;
1320;SDS011;653;51.480;11.992;2023-01-09T15:33:08;1.77;;;0.90;;
1320;SDS011;653;51.480;11.992;2023-01-09T15:35:40;1.27;;;0.60;;
1320;SDS011;653;51.480;11.992;2023-01-09T15:38:06;1.50;;;0.77;;
1320;SDS011;653;51.480;11.992;2023-01-09T15:40:38;1.30;;;0.90;;
1320;SDS011;653;51.480;11.992;2023-01-09T15:43:04;1.60;;;0.90;;
1320;SDS011;653;51.480;11.992;2023-01-09T15:45:33;3.10;;;0.97;;
1320;SDS011;653;51.480;11.992;2023-01-09T15:48:20;3.17;;;1.50;;
1320;SDS011;653;51.480;11.992;2023-01-09T15:53:42;1.00;;;0.50;;
1320;SDS011;653;51.480;11.992;2023-01-09T15:56:17;1.60;;;0.70;;
1320;SDS011;653;51.480;11.992;2023-01-09T15:58:54;1.43;;;0.90;;
1320;SDS011;653;51.480;11.992;2023-01-09T16:06:28;2.13;;;0.83;;
1320;SDS011;653;51.480;11.992;2023-01-09T16:08:54;3.73;;;0.80;;
1320;SDS011;653;51.480;11.992;2023-01-09T16:11:35;1.40;;;0.97;;
1320;SDS011;653;51.480;11.992;2023-01-09T16:14:10;1.03;;;0.73;;
1320;SDS011;653;51.480;11.992;2023-01-09T16:16:39;4.90;;;1.10;;
1320;SDS011;653;51.480;11.992;2023-01-09T16:21:56;3.13;;;1.20;;
1320;SDS011;653;51.480;11.992;2023-01-09T16:24:24;3.93;;;1.00;;
1320;SDS011;653;51.480;11.992;2023-01-09T16:27:11;1.70;;;0.80;;
1320;SDS011;653;51.480;11.992;2023-01-09T16:29:46;1.33;;;0.73;;
1320;SDS011;653;51.480;11.992;2023-01-09T16:32:23;1.53;;;0.90;;
1320;SDS011;653;51.480;11.992;2023-01-09T16:34:50;1.40;;;0.80;;
1320;SDS011;653;51.480;11.992;2023-01-09T16:37:21;1.40;;;1.00;;
1320;SDS011;653;51.480;11.992;2023-01-09T16:40:12;2.37;;;1.00;;
1320;SDS011;653;51.480;11.992;2023-01-09T16:42:40;3.50;;;1.00;;
1320;SDS011;653;51.480;11.992;2023-01-09T16:45:36;2.53;;;1.17;;
1320;SDS011;653;51.480;11.992;2023-01-09T16:48:12;1.83;;;1.10;;
1320;SDS011;653;51.480;11.992;2023-01-09T16:50:40;1.70;;;1.30;;
1320;SDS011;653;51.480;11.992;2023-01-09T16:53:22;1.33;;;1.13;;
1320;SDS011;653;51.480;11.992;2023-01-09T16:55:57;2.93;;;1.50;;
1320;SDS011;653;51.480;11.992;2023-01-09T16:58:25;2.07;;;1.27;;
1320;SDS011;653;51.480;11.992;2023-01-09T17:00:54;1.77;;;1.00;;
1320;SDS011;653;51.480;11.992;2023-01-09T17:03:23;2.23;;;1.53;;
1320;SDS011;653;51.480;11.992;2023-01-09T17:05:56;2.50;;;1.17;;
1320;SDS011;653;51.480;11.992;2023-01-09T17:08:25;1.30;;;0.87;;
1320;SDS011;653;51.480;11.992;2023-01-09T17:10:52;2.87;;;1.60;;
1320;SDS011;653;51.480;11.992;2023-01-09T17:13:20;3.60;;;1.20;;
1320;SDS011;653;51.480;11.992;2023-01-09T17:15:45;2.10;;;1.33;;
1320;SDS011;653;51.480;11.992;2023-01-09T17:18:16;2.50;;;1.63;;
1320;SDS011;653;51.480;11.992;2023-01-09T17:20:47;1.97;;;1.40;;
1320;SDS011;653;51.480;11.992;2023-01-09T17:23:15;2.07;;;1.47;;
1320;SDS011;653;51.480;11.992;2023-01-09T17:25:43;1.70;;;1.07;;
1320;SDS011;653;51.480;11.992;2023-01-09T17:28:28;1.97;;;1.17;;
1320;SDS011;653;51.480;11.992;2023-01-09T17:31:08;7.23;;;1.63;;
1320;SDS011;653;51.480;11.992;2023-01-09T17:33:37;2.60;;;1.17;;
1320;SDS011;653;51.480;11.992;2023-01-09T17:36:06;2.60;;;1.47;;
1320;SDS011;653;51.480;11.992;2023-01-09T17:38:37;3.00;;;1.73;;
1320;SDS011;653;51.480;11.992;2023-01-09T17:41:04;2.63;;;1.80;;